Arklow Mill — EIJD9 — position and weather

sailwx.info

Track history (hours):
 
Tides and Currents Weather Stations Pressure Air Temp Water Temp Dewpoint Dewpoint Depression Visibility Wind Speed Wind Dir Waves Ship Positions

Arklow Mill

Last reported at 2016-Sep-29 14:31 UTC. Time now 2016-Sep-29 15:14 UTC.
Position N 51°18' E 003°50'.

Length 137 m; draft 8.4 m.

Type: Ship. MMSI: 250002022.

Date/timePositionNaut miles runAvg speedWind from/ knotsBaromVisibWave heightAir tempDewpointWater temp
2016-Sep-29 14:31N 51°18' E 003°50'0 0.0
2016-Sep-29 13:31N 51°18' E 003°50'0 0.0
2016-Sep-29 08:31N 51°18' E 003°50'0 0.0
2016-Sep-29 07:31N 51°18' E 003°50'0 0.0
2016-Sep-29 00:31N 51°18' E 003°50'0 0.0
2016-Sep-28 21:31N 51°18' E 003°50'0 0.0
2016-Sep-28 19:31N 51°18' E 003°50'0 0.0
2016-Sep-28 16:31N 51°18' E 003°50'0 0.0
2016-Sep-28 15:32N 51°18' E 003°50'0 0.0
2016-Sep-28 12:31N 51°18' E 003°50'0 0.0
2016-Sep-28 08:31N 51°18' E 003°50'0 0.0
2016-Sep-28 03:31N 51°18' E 003°50'0 0.0
2016-Sep-28 02:31N 51°18' E 003°50'0 0.0
2016-Sep-28 01:31N 51°18' E 003°50'2 0.9
2016-Sep-27 23:33N 51°20' E 003°49'31 7.7
2016-Sep-27 19:33N 51°28' E 003°01'20210.7
2016-Sep-27 00:33N 53°55' E 006°52'5112.8
2016-Sep-26 20:33N 53°60' E 008°19'1111.4
2016-Sep-26 19:33N 53°57' E 008°38'20 5.0
2016-Sep-26 15:33N 53°55' E 009°12'23 5.7
2016-Sep-26 11:25N 54°14' E 009°36'17 5.8
2016-Sep-26 08:32N 54°22' E 010°02'38 6.4
2016-Sep-26 02:33N 54°36' E 011°03'1111.1
2016-Sep-26 01:33N 54°33' E 011°21'1211.6
2016-Sep-26 00:33N 54°28' E 011°39'28 9.2
2016-Sep-25 21:30N 54°39' E 012°24'4511.5
2016-Sep-25 17:33N 54°58' E 013°35'1212.1
2016-Sep-25 16:33N 55°03' E 013°55'1111.2
2016-Sep-25 15:33N 55°09' E 014°11'1211.5
2016-Sep-25 14:33N 55°19' E 014°23'2311.4
2016-Sep-25 12:33N 55°33' E 014°54'1111.3
2016-Sep-25 11:33N 55°38' E 015°12'1211.5
2016-Sep-25 10:32N 55°41' E 015°32'33510.7
2016-Sep-24 03:23N 59°35' E 022°58'911.4
2016-Sep-24 02:33N 59°37' E 023°16'1211.5
2016-Sep-24 01:33N 59°41' E 023°38'1111.4
2016-Sep-24 00:33N 59°44' E 023°59'7911.3
2016-Sep-23 17:32N 60°02' E 026°34'4510.4
2016-Sep-23 13:12N 60°10' E 028°03'6710.0
2016-Sep-23 06:31N 59°53' E 030°11'0 0.0
2016-Sep-23 04:31N 59°53' E 030°11'0 0.0
2016-Sep-23 03:31N 59°53' E 030°11'0 0.0
2016-Sep-23 02:31N 59°53' E 030°11'0 0.0
2016-Sep-23 01:31N 59°53' E 030°11'0 0.0
2016-Sep-23 00:31N 59°53' E 030°11'0 0.0
2016-Sep-22 23:31N 59°53' E 030°11'0 0.0
2016-Sep-22 20:31N 59°53' E 030°11'0 0.0
2016-Sep-22 12:31N 59°53' E 030°11'0 0.0
2016-Sep-22 04:33N 59°53' E 030°12'7 7.5
2016-Sep-22 03:33N 59°56' E 029°58'3411.4
2016-Sep-22 00:33N 60°02' E 028°50'1212.1
2016-Sep-21 23:34N 60°03' E 028°26'1211.9
2016-Sep-21 22:33N 60°08' E 028°05'47611.9
2016-Sep-20 06:30N 55°39' E 015°47'5112.9
2016-Sep-20 02:33N 55°16' E 014°27'8912.7
2016-Sep-19 19:31N 54°29' E 012°15'1111.6
2016-Sep-19 18:33N 54°25' E 011°57'2512.4
2016-Sep-19 16:33N 54°33' E 011°17'2512.3
2016-Sep-19 14:32N 54°33' E 010°34'  
Track history (hours):
 
Tides and Currents Weather Stations Pressure Air Temp Water Temp Dewpoint Dewpoint Depression Visibility Wind Speed Wind Dir Waves Ship Positions

Arklow Mill

Last reported at 2016-Sep-29 14:31 UTC. Time now 2016-Sep-29 15:14 UTC.
Position N 51°18' E 003°50'.

Length 137 m; draft 8.4 m.

Type: Ship. MMSI: 250002022.

Date/timePositionNaut miles runAvg speedWind from/ knotsBaromVisibWave heightAir tempDewpointWater temp
2016-Sep-29 14:31N 51°18' E 003°50'0 0.0
2016-Sep-29 13:31N 51°18' E 003°50'0 0.0
2016-Sep-29 08:31N 51°18' E 003°50'0 0.0
2016-Sep-29 07:31N 51°18' E 003°50'0 0.0
2016-Sep-29 00:31N 51°18' E 003°50'0 0.0
2016-Sep-28 21:31N 51°18' E 003°50'0 0.0
2016-Sep-28 19:31N 51°18' E 003°50'0 0.0
2016-Sep-28 16:31N 51°18' E 003°50'0 0.0
2016-Sep-28 15:32N 51°18' E 003°50'0 0.0
2016-Sep-28 12:31N 51°18' E 003°50'0 0.0
2016-Sep-28 08:31N 51°18' E 003°50'0 0.0
2016-Sep-28 03:31N 51°18' E 003°50'0 0.0
2016-Sep-28 02:31N 51°18' E 003°50'0 0.0
2016-Sep-28 01:31N 51°18' E 003°50'2 0.9
2016-Sep-27 23:33N 51°20' E 003°49'31 7.7
2016-Sep-27 19:33N 51°28' E 003°01'20210.7
2016-Sep-27 00:33N 53°55' E 006°52'5112.8
2016-Sep-26 20:33N 53°60' E 008°19'1111.4
2016-Sep-26 19:33N 53°57' E 008°38'20 5.0
2016-Sep-26 15:33N 53°55' E 009°12'23 5.7
2016-Sep-26 11:25N 54°14' E 009°36'17 5.8
2016-Sep-26 08:32N 54°22' E 010°02'38 6.4
2016-Sep-26 02:33N 54°36' E 011°03'1111.1
2016-Sep-26 01:33N 54°33' E 011°21'1211.6
2016-Sep-26 00:33N 54°28' E 011°39'28 9.2
2016-Sep-25 21:30N 54°39' E 012°24'4511.5
2016-Sep-25 17:33N 54°58' E 013°35'1212.1
2016-Sep-25 16:33N 55°03' E 013°55'1111.2
2016-Sep-25 15:33N 55°09' E 014°11'1211.5
2016-Sep-25 14:33N 55°19' E 014°23'2311.4
2016-Sep-25 12:33N 55°33' E 014°54'1111.3
2016-Sep-25 11:33N 55°38' E 015°12'1211.5
2016-Sep-25 10:32N 55°41' E 015°32'33510.7
2016-Sep-24 03:23N 59°35' E 022°58'911.4
2016-Sep-24 02:33N 59°37' E 023°16'1211.5
2016-Sep-24 01:33N 59°41' E 023°38'1111.4
2016-Sep-24 00:33N 59°44' E 023°59'7911.3
2016-Sep-23 17:32N 60°02' E 026°34'4510.4
2016-Sep-23 13:12N 60°10' E 028°03'6710.0
2016-Sep-23 06:31N 59°53' E 030°11'0 0.0
2016-Sep-23 04:31N 59°53' E 030°11'0 0.0
2016-Sep-23 03:31N 59°53' E 030°11'0 0.0
2016-Sep-23 02:31N 59°53' E 030°11'0 0.0
2016-Sep-23 01:31N 59°53' E 030°11'0 0.0
2016-Sep-23 00:31N 59°53' E 030°11'0 0.0
2016-Sep-22 23:31N 59°53' E 030°11'0 0.0
2016-Sep-22 20:31N 59°53' E 030°11'0 0.0
2016-Sep-22 12:31N 59°53' E 030°11'0 0.0
2016-Sep-22 04:33N 59°53' E 030°12'7 7.5
2016-Sep-22 03:33N 59°56' E 029°58'3411.4
2016-Sep-22 00:33N 60°02' E 028°50'1212.1
2016-Sep-21 23:34N 60°03' E 028°26'1211.9
2016-Sep-21 22:33N 60°08' E 028°05'47611.9
2016-Sep-20 06:30N 55°39' E 015°47'5112.9
2016-Sep-20 02:33N 55°16' E 014°27'8912.7
2016-Sep-19 19:31N 54°29' E 012°15'1111.6
2016-Sep-19 18:33N 54°25' E 011°57'2512.4
2016-Sep-19 16:33N 54°33' E 011°17'2512.3
2016-Sep-19 14:32N 54°33' E 010°34'  

Dump ship's entire track history